sensor_id;sensor_type;location;lat;lon;timestamp;temperature;humidity
70214;DHT22;60138;55.808;37.078;2024-03-08T00:01:16;-5.65;64.47
70214;DHT22;60138;55.808;37.078;2024-03-08T00:03:42;-5.61;64.50
70214;DHT22;60138;55.808;37.078;2024-03-08T00:06:08;-5.48;64.59
70214;DHT22;60138;55.808;37.078;2024-03-08T00:08:34;-5.39;64.53
70214;DHT22;60138;55.808;37.078;2024-03-08T00:10:59;-5.30;64.39
70214;DHT22;60138;55.808;37.078;2024-03-08T00:13:25;-5.22;64.41
70214;DHT22;60138;55.808;37.078;2024-03-08T00:15:51;-5.12;64.27
70214;DHT22;60138;55.808;37.078;2024-03-08T00:18:17;-5.01;63.95
70214;DHT22;60138;55.808;37.078;2024-03-08T00:20:42;-4.91;63.87
70214;DHT22;60138;55.808;37.078;2024-03-08T00:23:08;-4.84;63.75
70214;DHT22;60138;55.808;37.078;2024-03-08T00:25:34;-4.81;63.56
70214;DHT22;60138;55.808;37.078;2024-03-08T00:28:00;-4.80;63.34
70214;DHT22;60138;55.808;37.078;2024-03-08T00:30:25;-4.85;63.23
70214;DHT22;60138;55.808;37.078;2024-03-08T00:32:51;-4.96;63.21
70214;DHT22;60138;55.808;37.078;2024-03-08T00:35:17;-5.11;63.69
70214;DHT22;60138;55.808;37.078;2024-03-08T00:37:42;-5.24;63.41
70214;DHT22;60138;55.808;37.078;2024-03-08T00:40:08;-5.29;63.36
70214;DHT22;60138;55.808;37.078;2024-03-08T00:42:35;-5.29;63.79
70214;DHT22;60138;55.808;37.078;2024-03-08T00:45:01;-5.22;63.38
70214;DHT22;60138;55.808;37.078;2024-03-08T00:47:27;-5.11;63.16
70214;DHT22;60138;55.808;37.078;2024-03-08T00:49:53;-5.04;63.02
70214;DHT22;60138;55.808;37.078;2024-03-08T00:52:19;-5.00;62.97
70214;DHT22;60138;55.808;37.078;2024-03-08T00:54:44;-4.96;63.74
70214;DHT22;60138;55.808;37.078;2024-03-08T00:57:11;-4.87;63.61
70214;DHT22;60138;55.808;37.078;2024-03-08T00:59:38;-4.84;63.54
70214;DHT22;60138;55.808;37.078;2024-03-08T01:02:04;-4.86;62.70
70214;DHT22;60138;55.808;37.078;2024-03-08T01:04:30;-4.96;63.80
70214;DHT22;60138;55.808;37.078;2024-03-08T01:06:58;-5.12;63.45
70214;DHT22;60138;55.808;37.078;2024-03-08T01:09:25;-5.24;63.43
70214;DHT22;60138;55.808;37.078;2024-03-08T01:11:51;-5.33;64.11
70214;DHT22;60138;55.808;37.078;2024-03-08T01:14:17;-5.41;64.27
70214;DHT22;60138;55.808;37.078;2024-03-08T01:16:43;-5.48;64.74
70214;DHT22;60138;55.808;37.078;2024-03-08T01:19:08;-5.45;65.14
70214;DHT22;60138;55.808;37.078;2024-03-08T01:21:34;-5.41;64.47
70214;DHT22;60138;55.808;37.078;2024-03-08T01:24:00;-5.31;64.53
70214;DHT22;60138;55.808;37.078;2024-03-08T01:26:26;-5.22;64.07
70214;DHT22;60138;55.808;37.078;2024-03-08T01:28:51;-5.16;64.25
70214;DHT22;60138;55.808;37.078;2024-03-08T01:31:17;-5.07;65.02
70214;DHT22;60138;55.808;37.078;2024-03-08T01:33:43;-4.99;64.19
70214;DHT22;60138;55.808;37.078;2024-03-08T01:36:08;-4.96;64.84
70214;DHT22;60138;55.808;37.078;2024-03-08T01:38:34;-4.94;64.85
70214;DHT22;60138;55.808;37.078;2024-03-08T01:41:00;-4.93;66.37
70214;DHT22;60138;55.808;37.078;2024-03-08T01:43:27;-4.90;65.69
70214;DHT22;60138;55.808;37.078;2024-03-08T01:45:52;-4.87;65.16
70214;DHT22;60138;55.808;37.078;2024-03-08T01:48:18;-4.91;65.79
70214;DHT22;60138;55.808;37.078;2024-03-08T01:50:45;-5.08;66.78
70214;DHT22;60138;55.808;37.078;2024-03-08T01:53:11;-5.26;68.78
70214;DHT22;60138;55.808;37.078;2024-03-08T01:55:38;-5.40;68.75
70214;DHT22;60138;55.808;37.078;2024-03-08T01:58:09;-5.52;69.13
70214;DHT22;60138;55.808;37.078;2024-03-08T02:00:36;-5.60;69.99
70214;DHT22;60138;55.808;37.078;2024-03-08T02:03:02;-5.71;70.83
70214;DHT22;60138;55.808;37.078;2024-03-08T02:05:28;-5.76;69.52
70214;DHT22;60138;55.808;37.078;2024-03-08T02:07:54;-5.87;70.73
70214;DHT22;60138;55.808;37.078;2024-03-08T02:10:20;-5.90;70.19
70214;DHT22;60138;55.808;37.078;2024-03-08T02:12:46;-5.90;71.10
70214;DHT22;60138;55.808;37.078;2024-03-08T02:15:12;-5.87;70.01
70214;DHT22;60138;55.808;37.078;2024-03-08T02:17:38;-5.85;70.77
70214;DHT22;60138;55.808;37.078;2024-03-08T02:20:04;-5.75;69.68
70214;DHT22;60138;55.808;37.078;2024-03-08T02:22:30;-5.63;68.48
70214;DHT22;60138;55.808;37.078;2024-03-08T02:24:58;-5.62;70.26
70214;DHT22;60138;55.808;37.078;2024-03-08T02:27:27;-5.57;70.32
70214;DHT22;60138;55.808;37.078;2024-03-08T02:29:56;-5.50;69.46
70214;DHT22;60138;55.808;37.078;2024-03-08T02:32:23;-5.46;69.84
70214;DHT22;60138;55.808;37.078;2024-03-08T02:34:49;-5.42;69.97
70214;DHT22;60138;55.808;37.078;2024-03-08T02:37:19;-5.35;69.07
70214;DHT22;60138;55.808;37.078;2024-03-08T02:39:44;-5.30;69.01
70214;DHT22;60138;55.808;37.078;2024-03-08T02:42:10;-5.27;69.04
70214;DHT22;60138;55.808;37.078;2024-03-08T02:44:36;-5.26;69.52
70214;DHT22;60138;55.808;37.078;2024-03-08T02:47:01;-5.25;69.24
70214;DHT22;60138;55.808;37.078;2024-03-08T02:49:27;-5.23;69.19
70214;DHT22;60138;55.808;37.078;2024-03-08T02:51:53;-5.17;66.43
70214;DHT22;60138;55.808;37.078;2024-03-08T02:54:20;-5.18;69.13
70214;DHT22;60138;55.808;37.078;2024-03-08T02:56:45;-5.19;68.11
70214;DHT22;60138;55.808;37.078;2024-03-08T02:59:11;-5.15;67.68
70214;DHT22;60138;55.808;37.078;2024-03-08T03:01:37;-5.14;67.33
70214;DHT22;60138;55.808;37.078;2024-03-08T03:04:03;-5.13;68.22
70214;DHT22;60138;55.808;37.078;2024-03-08T03:06:29;-5.16;69.80
70214;DHT22;60138;55.808;37.078;2024-03-08T03:08:55;-5.20;69.28
70214;DHT22;60138;55.808;37.078;2024-03-08T03:11:20;-5.26;70.81
70214;DHT22;60138;55.808;37.078;2024-03-08T03:13:46;-5.23;69.52
70214;DHT22;60138;55.808;37.078;2024-03-08T03:16:17;-5.22;68.62
70214;DHT22;60138;55.808;37.078;2024-03-08T03:18:43;-5.25;71.27
70214;DHT22;60138;55.808;37.078;2024-03-08T03:21:08;-5.26;70.45
70214;DHT22;60138;55.808;37.078;2024-03-08T03:23:34;-5.29;71.41
70214;DHT22;60138;55.808;37.078;2024-03-08T03:26:00;-5.35;72.50
70214;DHT22;60138;55.808;37.078;2024-03-08T03:28:26;-5.35;71.60
70214;DHT22;60138;55.808;37.078;2024-03-08T03:30:51;-5.33;72.09
70214;DHT22;60138;55.808;37.078;2024-03-08T03:33:17;-5.35;71.16
70214;DHT22;60138;55.808;37.078;2024-03-08T03:35:43;-5.41;72.80
70214;DHT22;60138;55.808;37.078;2024-03-08T03:38:08;-5.46;73.32
70214;DHT22;60138;55.808;37.078;2024-03-08T03:40:34;-5.44;73.13
70214;DHT22;60138;55.808;37.078;2024-03-08T03:43:01;-5.46;73.47
70214;DHT22;60138;55.808;37.078;2024-03-08T03:45:27;-5.44;72.50
70214;DHT22;60138;55.808;37.078;2024-03-08T03:47:53;-5.42;70.90
70214;DHT22;60138;55.808;37.078;2024-03-08T03:50:19;-5.48;72.73
70214;DHT22;60138;55.808;37.078;2024-03-08T03:52:48;-5.50;72.49
70214;DHT22;60138;55.808;37.078;2024-03-08T03:55:15;-5.57;73.22
70214;DHT22;60138;55.808;37.078;2024-03-08T03:57:40;-5.56;72.68
70214;DHT22;60138;55.808;37.078;2024-03-08T04:00:07;-5.58;73.48
70214;DHT22;60138;55.808;37.078;2024-03-08T04:02:39;-5.55;73.06
70214;DHT22;60138;55.808;37.078;2024-03-08T04:05:07;-5.61;73.13
70214;DHT22;60138;55.808;37.078;2024-03-08T04:07:33;-5.58;72.80
70214;DHT22;60138;55.808;37.078;2024-03-08T04:09:58;-5.56;72.09
70214;DHT22;60138;55.808;37.078;2024-03-08T04:12:24;-5.52;72.03
70214;DHT22;60138;55.808;37.078;2024-03-08T04:14:50;-5.46;71.00
70214;DHT22;60138;55.808;37.078;2024-03-08T04:17:15;-5.44;71.18
70214;DHT22;60138;55.808;37.078;2024-03-08T04:19:42;-5.39;69.37
70214;DHT22;60138;55.808;37.078;2024-03-08T04:22:08;-5.30;69.09
70214;DHT22;60138;55.808;37.078;2024-03-08T04:24:33;-5.30;70.50
70214;DHT22;60138;55.808;37.078;2024-03-08T04:26:59;-5.32;71.03
70214;DHT22;60138;55.808;37.078;2024-03-08T04:29:25;-5.29;70.52
70214;DHT22;60138;55.808;37.078;2024-03-08T04:31:51;-5.25;67.27
70214;DHT22;60138;55.808;37.078;2024-03-08T04:34:17;-5.23;69.27
70214;DHT22;60138;55.808;37.078;2024-03-08T04:36:42;-5.20;69.73
70214;DHT22;60138;55.808;37.078;2024-03-08T04:39:08;-5.26;71.55
70214;DHT22;60138;55.808;37.078;2024-03-08T04:41:34;-5.27;71.20
70214;DHT22;60138;55.808;37.078;2024-03-08T04:44:00;-5.24;71.42
70214;DHT22;60138;55.808;37.078;2024-03-08T04:46:25;-5.28;71.93
70214;DHT22;60138;55.808;37.078;2024-03-08T04:48:51;-5.27;72.37
70214;DHT22;60138;55.808;37.078;2024-03-08T04:51:17;-5.28;71.86
70214;DHT22;60138;55.808;37.078;2024-03-08T04:53:42;-5.27;70.65
70214;DHT22;60138;55.808;37.078;2024-03-08T04:56:08;-5.25;70.64
70214;DHT22;60138;55.808;37.078;2024-03-08T04:58:37;-5.29;72.77
70214;DHT22;60138;55.808;37.078;2024-03-08T05:01:03;-5.30;73.82
70214;DHT22;60138;55.808;37.078;2024-03-08T05:03:29;-5.29;71.50
70214;DHT22;60138;55.808;37.078;2024-03-08T05:05:55;-5.24;71.37
70214;DHT22;60138;55.808;37.078;2024-03-08T05:08:20;-5.23;73.72
70214;DHT22;60138;55.808;37.078;2024-03-08T05:10:46;-5.22;71.75
70214;DHT22;60138;55.808;37.078;2024-03-08T05:13:12;-5.17;71.28
70214;DHT22;60138;55.808;37.078;2024-03-08T05:15:38;-5.13;72.49
70214;DHT22;60138;55.808;37.078;2024-03-08T05:18:03;-5.10;72.56
70214;DHT22;60138;55.808;37.078;2024-03-08T05:20:29;-5.09;73.57
70214;DHT22;60138;55.808;37.078;2024-03-08T05:22:55;-5.12;74.12
70214;DHT22;60138;55.808;37.078;2024-03-08T05:25:20;-5.09;72.46
70214;DHT22;60138;55.808;37.078;2024-03-08T05:27:46;-5.16;76.37
70214;DHT22;60138;55.808;37.078;2024-03-08T05:30:12;-5.14;75.99
70214;DHT22;60138;55.808;37.078;2024-03-08T05:32:38;-5.12;74.99
70214;DHT22;60138;55.808;37.078;2024-03-08T05:35:03;-5.04;73.57
70214;DHT22;60138;55.808;37.078;2024-03-08T05:37:29;-4.99;72.53
70214;DHT22;60138;55.808;37.078;2024-03-08T05:39:55;-4.96;73.63
70214;DHT22;60138;55.808;37.078;2024-03-08T05:42:21;-4.87;69.90
70214;DHT22;60138;55.808;37.078;2024-03-08T05:44:46;-4.80;69.46
70214;DHT22;60138;55.808;37.078;2024-03-08T05:47:12;-4.73;70.13
70214;DHT22;60138;55.808;37.078;2024-03-08T05:49:38;-4.65;72.56
70214;DHT22;60138;55.808;37.078;2024-03-08T05:52:03;-4.60;70.93
70214;DHT22;60138;55.808;37.078;2024-03-08T05:54:29;-4.57;72.19
70214;DHT22;60138;55.808;37.078;2024-03-08T05:56:55;-4.52;70.97
70214;DHT22;60138;55.808;37.078;2024-03-08T05:59:20;-4.46;72.67
70214;DHT22;60138;55.808;37.078;2024-03-08T06:01:46;-4.35;71.48
70214;DHT22;60138;55.808;37.078;2024-03-08T06:04:12;-4.32;73.52
70214;DHT22;60138;55.808;37.078;2024-03-08T06:06:38;-4.29;72.64
70214;DHT22;60138;55.808;37.078;2024-03-08T06:09:03;-4.31;73.20
70214;DHT22;60138;55.808;37.078;2024-03-08T06:11:29;-4.30;73.71
70214;DHT22;60138;55.808;37.078;2024-03-08T06:13:55;-4.23;72.19
70214;DHT22;60138;55.808;37.078;2024-03-08T06:16:20;-4.12;72.50
70214;DHT22;60138;55.808;37.078;2024-03-08T06:18:46;-4.05;72.76
70214;DHT22;60138;55.808;37.078;2024-03-08T06:21:12;-4.00;70.10
70214;DHT22;60138;55.808;37.078;2024-03-08T06:23:38;-3.96;69.86
70214;DHT22;60138;55.808;37.078;2024-03-08T06:26:10;-3.94;70.18
70214;DHT22;60138;55.808;37.078;2024-03-08T06:28:36;-3.91;72.12
70214;DHT22;60138;55.808;37.078;2024-03-08T06:31:02;-3.84;71.01
70214;DHT22;60138;55.808;37.078;2024-03-08T06:33:28;-3.75;71.80
70214;DHT22;60138;55.808;37.078;2024-03-08T06:35:57;-3.60;71.01
70214;DHT22;60138;55.808;37.078;2024-03-08T06:38:26;-3.54;70.88
70214;DHT22;60138;55.808;37.078;2024-03-08T06:40:52;-3.54;69.80
70214;DHT22;60138;55.808;37.078;2024-03-08T06:43:18;-3.49;71.12
70214;DHT22;60138;55.808;37.078;2024-03-08T06:45:47;-3.40;71.03
70214;DHT22;60138;55.808;37.078;2024-03-08T06:48:17;-3.34;70.77
70214;DHT22;60138;55.808;37.078;2024-03-08T06:50:44;-3.27;70.54
70214;DHT22;60138;55.808;37.078;2024-03-08T06:53:10;-3.11;69.81
70214;DHT22;60138;55.808;37.078;2024-03-08T06:55:36;-3.07;69.61
70214;DHT22;60138;55.808;37.078;2024-03-08T06:58:02;-3.05;69.61
70214;DHT22;60138;55.808;37.078;2024-03-08T07:00:27;-2.88;68.22
70214;DHT22;60138;55.808;37.078;2024-03-08T07:02:53;-2.84;68.65
70214;DHT22;60138;55.808;37.078;2024-03-08T07:05:19;-2.82;68.37
70214;DHT22;60138;55.808;37.078;2024-03-08T07:07:45;-2.73;68.46
70214;DHT22;60138;55.808;37.078;2024-03-08T07:10:11;-2.57;68.06
70214;DHT22;60138;55.808;37.078;2024-03-08T07:12:37;-2.39;67.75
70214;DHT22;60138;55.808;37.078;2024-03-08T07:15:05;-2.29;67.60
70214;DHT22;60138;55.808;37.078;2024-03-08T07:17:31;-2.27;67.32
70214;DHT22;60138;55.808;37.078;2024-03-08T07:19:57;-2.20;66.80
70214;DHT22;60138;55.808;37.078;2024-03-08T07:22:23;-2.05;66.68
70214;DHT22;60138;55.808;37.078;2024-03-08T07:24:48;-1.98;66.01
70214;DHT22;60138;55.808;37.078;2024-03-08T07:27:14;-2.01;65.75
70214;DHT22;60138;55.808;37.078;2024-03-08T07:29:40;-1.94;65.85
70214;DHT22;60138;55.808;37.078;2024-03-08T07:32:05;-1.98;65.50
70214;DHT22;60138;55.808;37.078;2024-03-08T07:34:31;-2.01;65.62
70214;DHT22;60138;55.808;37.078;2024-03-08T07:36:58;-2.05;65.69
70214;DHT22;60138;55.808;37.078;2024-03-08T07:39:23;-1.99;65.21
70214;DHT22;60138;55.808;37.078;2024-03-08T07:41:49;-2.10;65.75
70214;DHT22;60138;55.808;37.078;2024-03-08T07:44:15;-2.12;66.12
70214;DHT22;60138;55.808;37.078;2024-03-08T07:46:41;-2.15;66.31
70214;DHT22;60138;55.808;37.078;2024-03-08T07:49:07;-2.08;66.04
70214;DHT22;60138;55.808;37.078;2024-03-08T07:51:32;-2.08;65.95
70214;DHT22;60138;55.808;37.078;2024-03-08T07:53:58;-2.07;65.75
70214;DHT22;60138;55.808;37.078;2024-03-08T07:56:24;-1.99;65.08
70214;DHT22;60138;55.808;37.078;2024-03-08T07:58:49;-1.90;65.53
70214;DHT22;60138;55.808;37.078;2024-03-08T08:01:18;-1.84;65.11
70214;DHT22;60138;55.808;37.078;2024-03-08T08:03:45;-1.91;65.29
70214;DHT22;60138;55.808;37.078;2024-03-08T08:06:11;-1.86;65.67
70214;DHT22;60138;55.808;37.078;2024-03-08T08:08:37;-1.80;65.72
70214;DHT22;60138;55.808;37.078;2024-03-08T08:11:02;-1.76;64.95
70214;DHT22;60138;55.808;37.078;2024-03-08T08:13:28;-1.73;65.50
70214;DHT22;60138;55.808;37.078;2024-03-08T08:15:54;-1.69;65.46
70214;DHT22;60138;55.808;37.078;2024-03-08T08:18:20;-1.62;65.23
70214;DHT22;60138;55.808;37.078;2024-03-08T08:20:45;-1.64;65.12
70214;DHT22;60138;55.808;37.078;2024-03-08T08:23:11;-1.67;65.56
70214;DHT22;60138;55.808;37.078;2024-03-08T08:25:37;-1.67;65.85
70214;DHT22;60138;55.808;37.078;2024-03-08T08:28:02;-1.52;65.21
70214;DHT22;60138;55.808;37.078;2024-03-08T08:30:28;-1.43;64.82
70214;DHT22;60138;55.808;37.078;2024-03-08T08:32:54;-1.31;64.59
70214;DHT22;60138;55.808;37.078;2024-03-08T08:35:19;-1.17;64.82
70214;DHT22;60138;55.808;37.078;2024-03-08T08:37:45;-1.04;64.30
70214;DHT22;60138;55.808;37.078;2024-03-08T08:40:11;-1.03;63.53
70214;DHT22;60138;55.808;37.078;2024-03-08T08:42:37;-0.91;63.95
70214;DHT22;60138;55.808;37.078;2024-03-08T08:45:04;-0.85;64.05
70214;DHT22;60138;55.808;37.078;2024-03-08T08:47:30;-0.87;63.33
70214;DHT22;60138;55.808;37.078;2024-03-08T08:49:56;-0.88;63.85
70214;DHT22;60138;55.808;37.078;2024-03-08T08:52:22;-0.89;64.17
70214;DHT22;60138;55.808;37.078;2024-03-08T08:54:48;-0.94;64.18
70214;DHT22;60138;55.808;37.078;2024-03-08T08:57:13;-0.95;64.16
70214;DHT22;60138;55.808;37.078;2024-03-08T08:59:39;-0.99;64.34
70214;DHT22;60138;55.808;37.078;2024-03-08T09:02:06;-0.94;64.18
70214;DHT22;60138;55.808;37.078;2024-03-08T09:04:32;-0.90;63.98
70214;DHT22;60138;55.808;37.078;2024-03-08T09:06:58;-0.90;64.59
70214;DHT22;60138;55.808;37.078;2024-03-08T09:09:24;-0.95;64.47
70214;DHT22;60138;55.808;37.078;2024-03-08T09:11:50;-0.94;64.63
70214;DHT22;60138;55.808;37.078;2024-03-08T09:14:15;-0.81;64.88
70214;DHT22;60138;55.808;37.078;2024-03-08T09:16:41;-0.70;64.29
70214;DHT22;60138;55.808;37.078;2024-03-08T09:19:07;-0.56;64.14
70214;DHT22;60138;55.808;37.078;2024-03-08T09:21:33;-0.54;64.30
70214;DHT22;60138;55.808;37.078;2024-03-08T09:23:59;-0.52;64.27
70214;DHT22;60138;55.808;37.078;2024-03-08T09:26:24;-0.43;64.04
70214;DHT22;60138;55.808;37.078;2024-03-08T09:28:50;-0.34;64.11
70214;DHT22;60138;55.808;37.078;2024-03-08T09:31:16;-0.23;64.01
70214;DHT22;60138;55.808;37.078;2024-03-08T09:33:44;-0.11;63.69
70214;DHT22;60138;55.808;37.078;2024-03-08T09:36:10;-0.08;63.53
70214;DHT22;60138;55.808;37.078;2024-03-08T09:38:36;-0.20;63.69
70214;DHT22;60138;55.808;37.078;2024-03-08T09:41:03;-0.13;63.66
70214;DHT22;60138;55.808;37.078;2024-03-08T09:43:28;-0.12;63.31
70214;DHT22;60138;55.808;37.078;2024-03-08T09:45:55;-0.19;63.94
70214;DHT22;60138;55.808;37.078;2024-03-08T09:48:21;-0.13;64.09
70214;DHT22;60138;55.808;37.078;2024-03-08T09:50:47;0.04;63.98
70214;DHT22;60138;55.808;37.078;2024-03-08T09:53:14;0.14;63.88
70214;DHT22;60138;55.808;37.078;2024-03-08T09:55:39;0.27;63.66
70214;DHT22;60138;55.808;37.078;2024-03-08T09:58:06;0.37;63.29
70214;DHT22;60138;55.808;37.078;2024-03-08T10:00:32;0.39;63.10
70214;DHT22;60138;55.808;37.078;2024-03-08T10:03:01;0.57;62.70
70214;DHT22;60138;55.808;37.078;2024-03-08T10:05:27;0.66;62.46
70214;DHT22;60138;55.808;37.078;2024-03-08T10:07:53;0.66;61.60
70214;DHT22;60138;55.808;37.078;2024-03-08T10:10:19;0.65;61.89
70214;DHT22;60138;55.808;37.078;2024-03-08T10:12:46;0.66;61.54
70214;DHT22;60138;55.808;37.078;2024-03-08T10:15:11;0.76;62.40
70214;DHT22;60138;55.808;37.078;2024-03-08T10:17:37;0.79;61.43
70214;DHT22;60138;55.808;37.078;2024-03-08T10:20:03;0.86;61.60
70214;DHT22;60138;55.808;37.078;2024-03-08T10:22:29;0.88;61.39
70214;DHT22;60138;55.808;37.078;2024-03-08T10:24:55;0.95;61.64
70214;DHT22;60138;55.808;37.078;2024-03-08T10:27:21;1.03;60.96
70214;DHT22;60138;55.808;37.078;2024-03-08T10:29:48;0.97;61.14
70214;DHT22;60138;55.808;37.078;2024-03-08T10:32:13;1.02;61.03
70214;DHT22;60138;55.808;37.078;2024-03-08T10:34:39;1.01;61.31
70214;DHT22;60138;55.808;37.078;2024-03-08T10:37:06;1.04;61.56
70214;DHT22;60138;55.808;37.078;2024-03-08T10:39:37;1.11;60.91
70214;DHT22;60138;55.808;37.078;2024-03-08T10:42:04;1.14;61.22
70214;DHT22;60138;55.808;37.078;2024-03-08T10:44:32;1.21;60.51
70214;DHT22;60138;55.808;37.078;2024-03-08T10:47:09;1.10;60.66
70214;DHT22;60138;55.808;37.078;2024-03-08T10:50:15;1.08;61.41
70214;DHT22;60138;55.808;37.078;2024-03-08T10:52:43;1.01;61.19
70214;DHT22;60138;55.808;37.078;2024-03-08T10:55:09;0.98;61.21
70214;DHT22;60138;55.808;37.078;2024-03-08T10:57:36;1.03;61.85
70214;DHT22;60138;55.808;37.078;2024-03-08T11:00:03;1.01;61.38
70214;DHT22;60138;55.808;37.078;2024-03-08T11:02:31;1.08;61.54
70214;DHT22;60138;55.808;37.078;2024-03-08T11:04:56;0.95;61.25
70214;DHT22;60138;55.808;37.078;2024-03-08T11:07:22;0.92;61.66
70214;DHT22;60138;55.808;37.078;2024-03-08T11:09:49;0.87;61.95
70214;DHT22;60138;55.808;37.078;2024-03-08T11:14:45;0.88;62.00
70214;DHT22;60138;55.808;37.078;2024-03-08T11:17:13;0.71;62.86
70214;DHT22;60138;55.808;37.078;2024-03-08T11:19:46;0.77;63.08
70214;DHT22;60138;55.808;37.078;2024-03-08T11:22:21;0.82;62.98
70214;DHT22;60138;55.808;37.078;2024-03-08T11:24:48;0.80;63.14
70214;DHT22;60138;55.808;37.078;2024-03-08T11:27:15;0.77;62.86
70214;DHT22;60138;55.808;37.078;2024-03-08T11:29:41;0.78;63.26
70214;DHT22;60138;55.808;37.078;2024-03-08T11:34:47;1.02;62.37
70214;DHT22;60138;55.808;37.078;2024-03-08T11:37:17;1.11;62.11
70214;DHT22;60138;55.808;37.078;2024-03-08T11:39:51;1.20;61.99
70214;DHT22;60138;55.808;37.078;2024-03-08T11:42:18;1.33;61.81
70214;DHT22;60138;55.808;37.078;2024-03-08T11:44:45;1.46;61.89
70214;DHT22;60138;55.808;37.078;2024-03-08T11:47:11;1.54;61.60
70214;DHT22;60138;55.808;37.078;2024-03-08T11:49:38;1.65;61.13
70214;DHT22;60138;55.808;37.078;2024-03-08T11:52:04;1.58;60.29
70214;DHT22;60138;55.808;37.078;2024-03-08T11:54:30;1.64;61.05
70214;DHT22;60138;55.808;37.078;2024-03-08T11:56:56;1.67;61.10
70214;DHT22;60138;55.808;37.078;2024-03-08T11:59:22;1.68;61.28
70214;DHT22;60138;55.808;37.078;2024-03-08T12:02:07;1.56;60.70
70214;DHT22;60138;55.808;37.078;2024-03-08T12:04:33;1.45;60.99
70214;DHT22;60138;55.808;37.078;2024-03-08T12:07:02;1.25;60.67
70214;DHT22;60138;55.808;37.078;2024-03-08T12:09:28;1.20;61.37
70214;DHT22;60138;55.808;37.078;2024-03-08T12:11:54;1.22;61.54
70214;DHT22;60138;55.808;37.078;2024-03-08T12:14:20;1.18;61.47
70214;DHT22;60138;55.808;37.078;2024-03-08T12:16:46;1.11;61.18
70214;DHT22;60138;55.808;37.078;2024-03-08T12:19:13;1.17;61.59
70214;DHT22;60138;55.808;37.078;2024-03-08T12:21:38;1.16;61.73
70214;DHT22;60138;55.808;37.078;2024-03-08T12:24:06;1.24;61.34
70214;DHT22;60138;55.808;37.078;2024-03-08T12:26:32;1.36;61.31
70214;DHT22;60138;55.808;37.078;2024-03-08T12:29:32;1.56;60.35
70214;DHT22;60138;55.808;37.078;2024-03-08T12:31:58;1.66;60.94
70214;DHT22;60138;55.808;37.078;2024-03-08T12:34:24;1.52;59.99
70214;DHT22;60138;55.808;37.078;2024-03-08T12:36:51;1.47;60.03
70214;DHT22;60138;55.808;37.078;2024-03-08T12:39:18;1.51;60.86
70214;DHT22;60138;55.808;37.078;2024-03-08T12:41:44;1.64;60.44
70214;DHT22;60138;55.808;37.078;2024-03-08T12:44:09;1.79;59.64
70214;DHT22;60138;55.808;37.078;2024-03-08T12:46:35;1.79;60.14
70214;DHT22;60138;55.808;37.078;2024-03-08T12:49:01;1.68;59.51
70214;DHT22;60138;55.808;37.078;2024-03-08T12:51:27;1.58;60.71
70214;DHT22;60138;55.808;37.078;2024-03-08T12:53:53;1.60;60.43
70214;DHT22;60138;55.808;37.078;2024-03-08T12:56:30;1.60;60.05
70214;DHT22;60138;55.808;37.078;2024-03-08T12:58:56;1.54;59.65
70214;DHT22;60138;55.808;37.078;2024-03-08T13:01:22;1.40;59.99
70214;DHT22;60138;55.808;37.078;2024-03-08T13:03:48;1.45;60.71
70214;DHT22;60138;55.808;37.078;2024-03-08T13:06:14;1.46;60.81
70214;DHT22;60138;55.808;37.078;2024-03-08T13:08:39;1.38;60.44
70214;DHT22;60138;55.808;37.078;2024-03-08T13:11:09;1.36;60.54
70214;DHT22;60138;55.808;37.078;2024-03-08T13:13:35;1.39;60.25
70214;DHT22;60138;55.808;37.078;2024-03-08T13:16:01;1.48;60.69
70214;DHT22;60138;55.808;37.078;2024-03-08T13:18:27;1.51;60.49
70214;DHT22;60138;55.808;37.078;2024-03-08T13:20:52;1.49;60.63
70214;DHT22;60138;55.808;37.078;2024-03-08T13:23:18;1.53;60.25
70214;DHT22;60138;55.808;37.078;2024-03-08T13:25:44;1.38;60.02
70214;DHT22;60138;55.808;37.078;2024-03-08T13:28:10;1.24;60.12
70214;DHT22;60138;55.808;37.078;2024-03-08T13:30:35;1.16;60.52
70214;DHT22;60138;55.808;37.078;2024-03-08T13:33:01;1.12;60.90
70214;DHT22;60138;55.808;37.078;2024-03-08T13:35:27;1.04;61.12
70214;DHT22;60138;55.808;37.078;2024-03-08T13:37:53;0.92;61.80
70214;DHT22;60138;55.808;37.078;2024-03-08T13:40:18;0.83;61.97
70214;DHT22;60138;55.808;37.078;2024-03-08T13:42:44;0.77;62.36
70214;DHT22;60138;55.808;37.078;2024-03-08T13:45:10;0.79;63.01
70214;DHT22;60138;55.808;37.078;2024-03-08T13:47:36;0.81;63.37
70214;DHT22;60138;55.808;37.078;2024-03-08T13:50:02;0.87;62.23
70214;DHT22;60138;55.808;37.078;2024-03-08T13:52:29;0.87;62.59
70214;DHT22;60138;55.808;37.078;2024-03-08T13:54:55;0.86;62.88
70214;DHT22;60138;55.808;37.078;2024-03-08T13:57:21;0.81;63.42
70214;DHT22;60138;55.808;37.078;2024-03-08T13:59:46;0.81;63.15
70214;DHT22;60138;55.808;37.078;2024-03-08T14:02:12;0.74;63.31
70214;DHT22;60138;55.808;37.078;2024-03-08T14:04:38;0.55;65.00
70214;DHT22;60138;55.808;37.078;2024-03-08T14:07:04;0.44;64.63
70214;DHT22;60138;55.808;37.078;2024-03-08T14:09:30;0.32;63.15
70214;DHT22;60138;55.808;37.078;2024-03-08T14:11:55;0.18;66.32
70214;DHT22;60138;55.808;37.078;2024-03-08T14:14:22;0.27;65.34
70214;DHT22;60138;55.808;37.078;2024-03-08T14:16:48;0.35;65.67
70214;DHT22;60138;55.808;37.078;2024-03-08T14:19:14;0.40;66.20
70214;DHT22;60138;55.808;37.078;2024-03-08T14:21:40;0.40;65.88
70214;DHT22;60138;55.808;37.078;2024-03-08T14:24:05;0.40;64.59
70214;DHT22;60138;55.808;37.078;2024-03-08T14:26:31;0.35;63.83
70214;DHT22;60138;55.808;37.078;2024-03-08T14:28:57;0.32;64.24
70214;DHT22;60138;55.808;37.078;2024-03-08T14:31:23;0.34;64.37
70214;DHT22;60138;55.808;37.078;2024-03-08T14:33:48;0.36;65.30
70214;DHT22;60138;55.808;37.078;2024-03-08T14:36:15;0.29;66.39
70214;DHT22;60138;55.808;37.078;2024-03-08T14:38:41;0.31;66.14
70214;DHT22;60138;55.808;37.078;2024-03-08T14:41:06;0.34;65.75
70214;DHT22;60138;55.808;37.078;2024-03-08T14:43:32;0.38;65.66
70214;DHT22;60138;55.808;37.078;2024-03-08T14:45:58;0.35;66.94
70214;DHT22;60138;55.808;37.078;2024-03-08T14:48:23;0.33;66.81
70214;DHT22;60138;55.808;37.078;2024-03-08T14:50:49;0.31;66.71
70214;DHT22;60138;55.808;37.078;2024-03-08T14:53:15;0.28;67.36
70214;DHT22;60138;55.808;37.078;2024-03-08T14:55:41;0.24;66.39
70214;DHT22;60138;55.808;37.078;2024-03-08T14:58:07;0.16;67.20
70214;DHT22;60138;55.808;37.078;2024-03-08T15:00:33;0.09;67.11
70214;DHT22;60138;55.808;37.078;2024-03-08T15:02:59;-0.03;67.36
70214;DHT22;60138;55.808;37.078;2024-03-08T15:05:26;-0.15;65.88
70214;DHT22;60138;55.808;37.078;2024-03-08T15:07:52;-0.29;68.42
70214;DHT22;60138;55.808;37.078;2024-03-08T15:10:18;-0.38;68.07
70214;DHT22;60138;55.808;37.078;2024-03-08T15:12:44;-0.43;68.62
70214;DHT22;60138;55.808;37.078;2024-03-08T15:15:11;-0.52;68.52
70214;DHT22;60138;55.808;37.078;2024-03-08T15:17:38;-0.58;68.70
70214;DHT22;60138;55.808;37.078;2024-03-08T15:20:05;-0.66;68.62